createdAt,value
2023-01-13T00:00:51.466Z,10.02
2023-01-13T00:03:18.028Z,10.04
2023-01-13T00:05:44.614Z,10.04
2023-01-13T00:08:11.069Z,10.04
2023-01-13T00:10:38.475Z,10.01
2023-01-13T00:13:05.701Z,10.04
2023-01-13T00:15:33.452Z,10.03
2023-01-13T00:18:00.113Z,10.00
2023-01-13T00:20:26.560Z,9.98
2023-01-13T00:22:53.196Z,9.91
2023-01-13T00:25:19.680Z,9.92
2023-01-13T00:27:46.309Z,9.90
2023-01-13T00:30:13.159Z,9.93
2023-01-13T00:32:41.904Z,9.97
2023-01-13T00:35:09.060Z,9.92
2023-01-13T00:37:37.847Z,9.94
2023-01-13T00:40:05.488Z,9.87
2023-01-13T00:42:50.433Z,9.90
2023-01-13T00:45:17.095Z,9.86
2023-01-13T00:47:43.694Z,9.91
2023-01-13T00:50:10.943Z,9.93
2023-01-13T00:52:37.566Z,9.92
2023-01-13T00:55:04.408Z,9.88
2023-01-13T00:57:30.914Z,9.91
2023-01-13T00:59:57.419Z,9.94
2023-01-13T01:02:24.113Z,9.89
2023-01-13T01:04:50.728Z,9.98
2023-01-13T01:07:17.285Z,9.99
2023-01-13T01:09:44.365Z,10.00
2023-01-13T01:12:11.048Z,9.98
2023-01-13T01:14:37.607Z,9.98
2023-01-13T01:17:04.076Z,10.00
2023-01-13T01:19:30.616Z,9.98
2023-01-13T01:21:57.281Z,9.96
2023-01-13T01:24:23.800Z,10.03
2023-01-13T01:26:50.506Z,9.95
2023-01-13T01:29:17.317Z,9.91
2023-01-13T01:31:44.154Z,9.85
2023-01-13T01:34:10.891Z,9.88
2023-01-13T01:36:37.650Z,9.84
2023-01-13T01:39:04.457Z,9.84
2023-01-13T01:41:33.884Z,9.85
2023-01-13T01:44:06.927Z,9.83
2023-01-13T01:46:38.000Z,9.84
2023-01-13T01:49:10.902Z,9.86
2023-01-13T01:51:46.697Z,9.77
2023-01-13T01:54:20.730Z,9.65
2023-01-13T01:56:48.243Z,9.72
2023-01-13T01:59:15.358Z,9.57
2023-01-13T02:01:43.954Z,8.99
2023-01-13T02:04:23.297Z,8.69
2023-01-13T02:06:50.845Z,8.39
2023-01-13T02:09:17.713Z,8.27
2023-01-13T02:12:03.016Z,8.20
2023-01-13T02:14:31.246Z,8.14
2023-01-13T02:17:06.826Z,8.19
2023-01-13T02:19:48.430Z,8.17
2023-01-13T02:22:33.218Z,8.19
2023-01-13T02:25:19.507Z,8.24
2023-01-13T02:28:28.040Z,8.17
2023-01-13T02:31:26.783Z,8.13
2023-01-13T02:34:09.952Z,8.13
2023-01-13T02:37:16.911Z,8.16
2023-01-13T02:39:57.316Z,8.23
2023-01-13T02:42:51.344Z,8.25
2023-01-13T02:45:23.751Z,8.23
2023-01-13T02:47:52.917Z,8.20
2023-01-13T02:50:25.252Z,8.13
2023-01-13T02:53:00.582Z,8.15
2023-01-13T02:55:34.422Z,8.07
2023-01-13T02:58:04.012Z,8.07
2023-01-13T03:00:33.409Z,8.07
2023-01-13T03:03:01.441Z,7.94
2023-01-13T03:05:29.872Z,7.99
2023-01-13T03:08:18.374Z,7.96
2023-01-13T03:11:05.094Z,7.92
2023-01-13T03:13:50.145Z,7.89
2023-01-13T03:16:16.484Z,7.84
2023-01-13T03:19:01.872Z,7.75
2023-01-13T03:21:44.469Z,7.83
2023-01-13T03:24:21.629Z,7.72
2023-01-13T03:26:55.233Z,7.73
2023-01-13T03:29:23.218Z,7.74
2023-01-13T03:32:27.024Z,7.73
2023-01-13T03:34:59.921Z,7.70
2023-01-13T03:37:32.256Z,7.68
2023-01-13T03:40:03.817Z,7.57
2023-01-13T03:42:34.020Z,7.56
2023-01-13T03:45:19.605Z,7.57
2023-01-13T03:47:45.859Z,7.48
2023-01-13T03:50:19.056Z,7.65
2023-01-13T03:53:00.092Z,7.63
2023-01-13T03:55:31.689Z,7.66
2023-01-13T03:58:10.626Z,7.58
2023-01-13T04:00:44.239Z,7.54
2023-01-13T04:03:15.199Z,7.55
2023-01-13T04:05:47.318Z,7.50
2023-01-13T04:08:22.442Z,7.54
2023-01-13T04:10:57.610Z,7.51
2023-01-13T04:13:28.735Z,7.46
2023-01-13T04:15:55.311Z,7.48
2023-01-13T04:18:25.309Z,7.39
2023-01-13T04:20:53.420Z,7.41
2023-01-13T04:23:21.104Z,7.30
2023-01-13T04:25:48.451Z,7.45
2023-01-13T04:28:16.071Z,7.46
2023-01-13T04:30:43.182Z,7.43
2023-01-13T04:33:10.782Z,7.36
2023-01-13T04:35:38.071Z,7.37
2023-01-13T04:38:10.901Z,7.31
2023-01-13T04:40:37.835Z,7.31
2023-01-13T04:43:04.793Z,7.30
2023-01-13T04:45:31.642Z,7.24
2023-01-13T04:47:58.179Z,7.20
2023-01-13T04:50:25.270Z,7.19
2023-01-13T04:52:53.252Z,7.18
2023-01-13T04:55:21.482Z,7.12
2023-01-13T04:57:48.031Z,7.13
2023-01-13T05:00:17.190Z,7.20
2023-01-13T05:02:43.893Z,7.22
2023-01-13T05:05:10.648Z,7.18
2023-01-13T05:07:37.362Z,7.25
2023-01-13T05:10:03.989Z,7.16
2023-01-13T05:12:49.233Z,7.17
2023-01-13T05:15:34.686Z,7.14
2023-01-13T05:18:01.493Z,7.14
2023-01-13T05:20:28.324Z,7.08
2023-01-13T05:23:13.476Z,7.02
2023-01-13T05:25:44.099Z,6.93
2023-01-13T05:28:11.096Z,6.76
2023-01-13T05:30:43.925Z,6.69
2023-01-13T05:33:12.301Z,6.66
2023-01-13T05:35:39.878Z,6.66
2023-01-13T05:38:06.597Z,6.52
2023-01-13T05:40:51.835Z,6.41
2023-01-13T05:43:21.510Z,6.41
2023-01-13T05:45:49.987Z,6.37
2023-01-13T05:48:18.026Z,6.42
2023-01-13T05:50:46.138Z,6.36
2023-01-13T05:53:13.455Z,6.32
2023-01-13T05:55:41.384Z,6.36
2023-01-13T05:58:09.521Z,6.36
2023-01-13T06:00:36.226Z,6.29
2023-01-13T06:03:03.091Z,6.25
2023-01-13T06:05:29.557Z,6.20
2023-01-13T06:08:00.385Z,6.18
2023-01-13T06:10:28.267Z,6.30
2023-01-13T06:12:55.211Z,6.35
2023-01-13T06:15:22.261Z,6.34
2023-01-13T06:17:49.182Z,6.43
2023-01-13T06:20:16.456Z,6.54
2023-01-13T06:22:46.849Z,6.49
2023-01-13T06:25:34.886Z,6.51
2023-01-13T06:28:02.005Z,6.55
2023-01-13T06:30:33.741Z,6.54
2023-01-13T06:33:03.863Z,6.56
2023-01-13T06:35:34.443Z,6.59
2023-01-13T06:38:03.827Z,6.59
2023-01-13T06:40:30.715Z,6.63
2023-01-13T06:43:17.339Z,6.70
2023-01-13T06:45:51.659Z,6.72
2023-01-13T06:48:21.956Z,6.71
2023-01-13T06:50:48.527Z,6.71
2023-01-13T06:53:15.187Z,6.72
2023-01-13T06:55:41.613Z,6.71
2023-01-13T06:58:08.327Z,6.75
2023-01-13T07:00:37.575Z,6.78
2023-01-13T07:03:12.416Z,6.78
2023-01-13T07:05:40.427Z,6.81
2023-01-13T07:08:07.158Z,6.73
2023-01-13T07:10:35.540Z,6.76
2023-01-13T07:13:23.184Z,6.75
2023-01-13T07:16:01.870Z,6.74
2023-01-13T07:18:31.696Z,6.75
2023-01-13T07:21:07.188Z,6.69
2023-01-13T07:23:35.969Z,6.68
2023-01-13T07:26:03.033Z,6.71
2023-01-13T07:28:30.516Z,6.75
2023-01-13T07:30:57.795Z,6.77
2023-01-13T07:33:24.863Z,6.78
2023-01-13T07:35:59.111Z,6.82
2023-01-13T07:38:26.090Z,6.81
2023-01-13T07:40:52.948Z,6.78
2023-01-13T07:43:34.407Z,6.80
2023-01-13T07:46:04.457Z,6.80
2023-01-13T07:48:32.946Z,6.74
2023-01-13T07:51:08.615Z,6.76
2023-01-13T07:53:35.913Z,6.76
2023-01-13T07:56:04.768Z,6.70
2023-01-13T07:58:33.768Z,6.81
2023-01-13T08:01:00.271Z,6.73
2023-01-13T08:03:27.165Z,6.79
2023-01-13T08:05:53.659Z,6.84
2023-01-13T08:08:20.401Z,6.84
2023-01-13T08:10:46.830Z,6.92
2023-01-13T08:13:22.619Z,6.86
2023-01-13T08:15:51.493Z,6.84
2023-01-13T08:18:22.008Z,6.81
2023-01-13T08:20:49.825Z,6.75
2023-01-13T08:23:17.176Z,6.62
2023-01-13T08:25:44.267Z,6.53
2023-01-13T08:28:11.328Z,6.40
2023-01-13T08:30:38.673Z,6.31
2023-01-13T08:33:10.480Z,6.29
2023-01-13T08:35:38.593Z,6.24
2023-01-13T08:38:05.928Z,6.07
2023-01-13T08:40:32.892Z,6.11
2023-01-13T08:43:00.037Z,6.10
2023-01-13T08:45:26.790Z,6.13
2023-01-13T08:47:53.478Z,5.99
2023-01-13T08:50:20.000Z,5.89
2023-01-13T08:52:46.549Z,5.99
2023-01-13T08:55:13.016Z,6.04
2023-01-13T08:57:39.585Z,6.08
2023-01-13T09:00:08.653Z,6.06
2023-01-13T09:02:35.322Z,6.13
2023-01-13T09:05:03.850Z,6.13
2023-01-13T09:07:31.175Z,6.23
2023-01-13T09:09:57.777Z,6.23
2023-01-13T09:12:42.963Z,6.18
2023-01-13T09:15:10.385Z,6.20
2023-01-13T09:17:36.868Z,6.23
2023-01-13T09:20:04.463Z,6.37
2023-01-13T09:22:31.067Z,6.61
2023-01-13T09:24:57.781Z,6.75
2023-01-13T09:27:24.188Z,6.88
2023-01-13T09:29:50.706Z,7.01
2023-01-13T09:32:17.394Z,7.17
2023-01-13T09:35:02.425Z,7.28
2023-01-13T09:37:31.102Z,7.31
2023-01-13T09:39:57.627Z,7.36
2023-01-13T09:43:07.884Z,7.36
2023-01-13T09:45:42.718Z,7.33
2023-01-13T09:48:51.904Z,7.40
2023-01-13T09:51:33.880Z,7.53
2023-01-13T09:54:06.501Z,7.51
2023-01-13T09:56:33.091Z,7.64
2023-01-13T09:58:59.508Z,7.62
2023-01-13T10:01:25.993Z,7.54
2023-01-13T10:03:53.413Z,7.56
2023-01-13T10:06:29.833Z,7.44
2023-01-13T10:08:57.571Z,7.47
2023-01-13T10:11:45.743Z,7.41
2023-01-13T10:14:38.712Z,7.55
2023-01-13T10:17:08.305Z,7.69
2023-01-13T10:19:43.586Z,7.78
2023-01-13T10:22:31.879Z,7.89
2023-01-13T10:25:28.008Z,7.91
2023-01-13T10:28:01.463Z,7.98
2023-01-13T10:30:34.420Z,7.92
2023-01-13T10:33:17.481Z,7.88
2023-01-13T10:35:51.493Z,7.84
2023-01-13T10:38:45.821Z,7.80
2023-01-13T10:41:15.043Z,8.05
2023-01-13T10:44:04.601Z,8.12
2023-01-13T10:46:49.827Z,8.25
2023-01-13T10:49:27.388Z,8.27
2023-01-13T10:51:54.031Z,8.32
2023-01-13T10:54:23.977Z,8.29
2023-01-13T10:57:28.380Z,8.27
2023-01-13T10:59:55.630Z,8.27
2023-01-13T11:02:31.164Z,8.24
2023-01-13T11:05:03.522Z,8.27
2023-01-13T11:07:38.657Z,8.32
2023-01-13T11:10:17.417Z,8.32
2023-01-13T11:13:06.802Z,8.34
2023-01-13T11:15:45.373Z,8.41
2023-01-13T11:18:26.753Z,8.39
2023-01-13T11:20:55.756Z,8.40
2023-01-13T11:23:29.826Z,8.37
2023-01-13T11:26:14.846Z,8.42
2023-01-13T11:29:00.234Z,8.53
2023-01-13T11:31:33.399Z,8.62
2023-01-13T11:34:18.286Z,8.56
2023-01-13T11:36:50.560Z,8.56
2023-01-13T11:39:29.935Z,8.61
2023-01-13T11:42:20.543Z,8.60
2023-01-13T11:45:05.986Z,8.66
2023-01-13T11:47:35.176Z,8.72
2023-01-13T11:50:02.523Z,8.79
2023-01-13T11:52:56.957Z,8.76
2023-01-13T11:55:39.921Z,8.82
2023-01-13T11:58:18.361Z,8.76
2023-01-13T12:01:02.573Z,8.71
2023-01-13T12:03:35.609Z,8.76
2023-01-13T12:06:22.432Z,8.87
2023-01-13T12:09:11.813Z,8.92
2023-01-13T12:12:12.810Z,9.00
2023-01-13T12:14:54.336Z,9.00
2023-01-13T12:17:31.492Z,8.99
2023-01-13T12:20:10.232Z,8.97
2023-01-13T12:22:37.501Z,8.98
2023-01-13T12:25:21.577Z,8.86
2023-01-13T12:27:56.232Z,8.74
2023-01-13T12:30:39.303Z,8.33
2023-01-13T12:33:24.725Z,7.64
2023-01-13T12:36:00.788Z,7.43
2023-01-13T12:38:37.560Z,7.41
2023-01-13T12:41:11.367Z,7.60
2023-01-13T12:44:00.130Z,7.64
2023-01-13T12:46:26.501Z,7.77
2023-01-13T12:48:54.785Z,7.97
2023-01-13T12:51:22.075Z,8.12
2023-01-13T12:53:48.741Z,8.07
2023-01-13T12:56:42.209Z,8.17
2023-01-13T12:59:19.205Z,8.25
2023-01-13T13:01:48.331Z,8.34
2023-01-13T13:04:43.575Z,8.44
2023-01-13T13:07:16.441Z,8.48
2023-01-13T13:09:52.827Z,8.44
2023-01-13T13:12:50.200Z,8.38
2023-01-13T13:15:26.722Z,8.29
2023-01-13T13:17:59.586Z,8.14
2023-01-13T13:20:55.576Z,8.18
2023-01-13T13:23:27.989Z,8.12
2023-01-13T13:26:21.224Z,8.03
2023-01-13T13:29:06.862Z,8.04
2023-01-13T13:32:21.944Z,8.05
2023-01-13T13:35:11.432Z,8.03
2023-01-13T13:38:01.082Z,8.01
2023-01-13T13:40:51.653Z,8.01
2023-01-13T13:43:39.000Z,7.98
2023-01-13T13:46:47.717Z,7.92
2023-01-13T13:49:19.078Z,7.81
2023-01-13T13:52:02.971Z,7.81
2023-01-13T13:54:30.637Z,7.78
2023-01-13T13:56:58.729Z,7.76
2023-01-13T13:59:30.583Z,7.71
2023-01-13T14:02:01.985Z,7.76
2023-01-13T14:04:32.997Z,7.85
2023-01-13T14:07:17.867Z,7.84
2023-01-13T14:09:46.085Z,7.83
2023-01-13T14:12:24.264Z,7.87
2023-01-13T14:14:51.701Z,7.89
2023-01-13T14:17:22.226Z,7.94
2023-01-13T14:20:02.596Z,8.08
2023-01-13T14:22:29.267Z,8.08
2023-01-13T14:24:57.548Z,8.08
2023-01-13T14:27:29.882Z,8.08
2023-01-13T14:30:00.027Z,8.07
2023-01-13T14:32:35.011Z,8.03
2023-01-13T14:35:01.593Z,8.11
2023-01-13T14:37:45.360Z,8.12
2023-01-13T14:40:37.316Z,8.11
2023-01-13T14:43:16.964Z,8.05
2023-01-13T14:45:55.645Z,8.08
2023-01-13T14:48:26.863Z,7.95
2023-01-13T14:50:53.340Z,7.92
2023-01-13T14:53:46.250Z,7.67
2023-01-13T14:56:37.777Z,7.55
2023-01-13T14:59:56.022Z,7.26
2023-01-13T15:02:44.367Z,7.12
2023-01-13T15:05:17.158Z,7.02
2023-01-13T15:08:17.148Z,6.92
2023-01-13T15:11:05.140Z,6.82
2023-01-13T15:13:35.573Z,6.73
2023-01-13T15:16:05.510Z,6.74
2023-01-13T15:18:32.980Z,6.70
2023-01-13T15:20:59.353Z,6.68
2023-01-13T15:23:25.939Z,6.70
2023-01-13T15:25:52.433Z,6.72
2023-01-13T15:28:26.270Z,6.72
2023-01-13T15:30:54.849Z,6.69
2023-01-13T15:33:22.732Z,6.74
2023-01-13T15:35:51.808Z,6.73
2023-01-13T15:38:21.072Z,6.69
2023-01-13T15:40:49.119Z,6.70
2023-01-13T15:43:36.996Z,6.78
2023-01-13T15:46:28.378Z,6.79
2023-01-13T15:48:55.116Z,6.75
2023-01-13T15:51:21.709Z,6.78
2023-01-13T15:53:48.163Z,6.79
2023-01-13T15:56:21.310Z,6.78
2023-01-13T15:58:47.834Z,6.82
2023-01-13T16:01:14.443Z,6.76
2023-01-13T16:03:41.076Z,6.76
2023-01-13T16:06:27.753Z,6.81
2023-01-13T16:08:54.152Z,6.77
2023-01-13T16:11:20.734Z,6.80
2023-01-13T16:13:47.139Z,6.82
2023-01-13T16:16:25.481Z,6.88
2023-01-13T16:18:53.174Z,6.84
2023-01-13T16:21:20.868Z,6.88
2023-01-13T16:23:49.188Z,6.86
2023-01-13T16:26:24.137Z,6.85
2023-01-13T16:28:52.903Z,6.93
2023-01-13T16:31:27.177Z,6.91
2023-01-13T16:33:54.249Z,6.95
2023-01-13T16:36:21.846Z,6.98
2023-01-13T16:38:50.193Z,7.05
2023-01-13T16:41:16.972Z,7.11
2023-01-13T16:43:43.862Z,7.07
2023-01-13T16:46:26.507Z,7.04
2023-01-13T16:48:55.836Z,7.06
2023-01-13T16:51:23.679Z,6.97
2023-01-13T16:53:51.069Z,6.96
2023-01-13T16:56:23.547Z,6.86
2023-01-13T16:58:51.679Z,6.86
2023-01-13T17:01:30.522Z,6.72
2023-01-13T17:03:58.403Z,6.68
2023-01-13T17:06:29.020Z,6.66
2023-01-13T17:09:00.766Z,6.60
2023-01-13T17:11:27.305Z,6.66
2023-01-13T17:13:53.832Z,6.54
2023-01-13T17:16:22.666Z,6.58
2023-01-13T17:18:49.180Z,6.65
2023-01-13T17:21:16.431Z,6.59
2023-01-13T17:23:43.327Z,6.70
2023-01-13T17:26:28.141Z,6.83
2023-01-13T17:28:54.764Z,6.78
2023-01-13T17:31:22.265Z,6.83
2023-01-13T17:33:48.720Z,6.81
2023-01-13T17:36:16.378Z,6.79
2023-01-13T17:38:43.169Z,6.84
2023-01-13T17:41:10.161Z,6.77
2023-01-13T17:43:37.397Z,6.65
2023-01-13T17:46:09.321Z,6.69
2023-01-13T17:48:36.440Z,6.73
2023-01-13T17:51:16.502Z,6.66
2023-01-13T17:53:44.055Z,6.70
2023-01-13T17:56:12.007Z,6.70
2023-01-13T17:58:40.043Z,6.73
2023-01-13T18:01:08.746Z,6.78
2023-01-13T18:03:35.398Z,6.66
2023-01-13T18:06:03.872Z,6.69
2023-01-13T18:08:30.283Z,6.70
2023-01-13T18:10:58.188Z,6.66
2023-01-13T18:13:25.264Z,6.58
2023-01-13T18:16:11.575Z,6.56
2023-01-13T18:18:39.694Z,6.63
2023-01-13T18:21:25.898Z,6.75
2023-01-13T18:24:11.594Z,6.55
2023-01-13T18:26:56.582Z,6.57
2023-01-13T18:29:23.095Z,6.57
2023-01-13T18:31:49.598Z,6.68
2023-01-13T18:34:16.110Z,6.69
2023-01-13T18:36:42.517Z,6.64
2023-01-13T18:39:10.228Z,6.62
2023-01-13T18:41:55.410Z,6.63
2023-01-13T18:44:22.059Z,6.65
2023-01-13T18:46:50.104Z,6.63
2023-01-13T18:49:16.495Z,6.65
2023-01-13T18:51:43.221Z,6.63
2023-01-13T18:54:09.655Z,6.69
2023-01-13T18:56:36.052Z,6.62
2023-01-13T18:59:03.847Z,6.64
2023-01-13T19:01:30.688Z,6.64
2023-01-13T19:04:04.972Z,6.71
2023-01-13T19:06:33.750Z,6.72
2023-01-13T19:09:08.247Z,6.79
2023-01-13T19:11:36.110Z,6.64
2023-01-13T19:14:03.702Z,6.71
2023-01-13T19:16:30.506Z,6.76
2023-01-13T19:18:56.927Z,6.78
2023-01-13T19:21:24.734Z,6.74
2023-01-13T19:23:56.528Z,6.73
2023-01-13T19:26:22.935Z,6.75
2023-01-13T19:28:50.394Z,6.81
2023-01-13T19:31:17.198Z,6.67
2023-01-13T19:33:43.659Z,6.65
2023-01-13T19:36:10.567Z,6.64
2023-01-13T19:38:37.429Z,6.68
2023-01-13T19:41:11.123Z,6.67
2023-01-13T19:43:56.430Z,6.68
2023-01-13T19:46:25.927Z,6.62
2023-01-13T19:48:53.520Z,6.65
2023-01-13T19:51:19.912Z,6.66
2023-01-13T19:53:46.837Z,6.68
2023-01-13T19:56:14.443Z,6.72
2023-01-13T19:58:42.242Z,6.56
2023-01-13T20:01:10.115Z,6.66
2023-01-13T20:03:37.671Z,6.72
2023-01-13T20:06:07.723Z,6.65
2023-01-13T20:08:34.324Z,6.70
2023-01-13T20:11:20.883Z,6.59
2023-01-13T20:13:48.089Z,6.62
2023-01-13T20:16:14.800Z,6.64
2023-01-13T20:18:41.328Z,6.60
2023-01-13T20:21:08.096Z,6.61
2023-01-13T20:23:34.588Z,6.57
2023-01-13T20:26:01.901Z,6.63
2023-01-13T20:28:28.310Z,6.63
2023-01-13T20:30:55.699Z,6.55
2023-01-13T20:33:22.250Z,6.54
2023-01-13T20:35:57.116Z,6.61
2023-01-13T20:38:23.542Z,6.61
2023-01-13T20:41:00.286Z,6.60
2023-01-13T20:43:27.191Z,6.55
2023-01-13T20:45:54.198Z,6.68
2023-01-13T20:48:20.801Z,6.64
2023-01-13T20:50:53.648Z,6.66
2023-01-13T20:53:20.039Z,6.72
2023-01-13T20:55:46.609Z,6.64
2023-01-13T20:58:12.960Z,6.68
2023-01-13T21:00:39.586Z,6.64
2023-01-13T21:03:06.110Z,6.64
2023-01-13T21:05:35.681Z,6.62
2023-01-13T21:08:02.236Z,6.62
2023-01-13T21:10:28.847Z,6.60
2023-01-13T21:13:13.982Z,6.56
2023-01-13T21:15:40.405Z,6.56
2023-01-13T21:18:25.472Z,6.65
2023-01-13T21:21:11.305Z,6.61
2023-01-13T21:23:43.308Z,6.62
2023-01-13T21:26:11.112Z,6.60
2023-01-13T21:28:37.738Z,6.63
2023-01-13T21:31:05.811Z,6.62
2023-01-13T21:33:32.347Z,6.60
2023-01-13T21:36:06.367Z,6.64
2023-01-13T21:38:33.460Z,6.64
2023-01-13T21:41:04.618Z,6.70
2023-01-13T21:43:50.880Z,6.71
2023-01-13T21:46:36.917Z,6.73
2023-01-13T21:49:04.571Z,6.66
2023-01-13T21:51:32.435Z,6.72
2023-01-13T21:53:59.340Z,6.71
2023-01-13T21:56:26.196Z,6.76
2023-01-13T21:58:52.878Z,6.79
2023-01-13T22:01:20.097Z,6.80
2023-01-13T22:04:19.542Z,6.73
2023-01-13T22:06:45.941Z,6.78
2023-01-13T22:09:14.552Z,6.72
2023-01-13T22:11:40.945Z,6.75
2023-01-13T22:14:09.944Z,6.78
2023-01-13T22:16:39.337Z,6.79
2023-01-13T22:19:07.481Z,6.76
2023-01-13T22:21:34.909Z,6.78
2023-01-13T22:24:02.014Z,6.79
2023-01-13T22:26:28.689Z,6.86
2023-01-13T22:28:55.271Z,6.87
2023-01-13T22:31:23.858Z,6.79
2023-01-13T22:33:55.149Z,6.76
2023-01-13T22:36:24.043Z,6.85
2023-01-13T22:38:55.721Z,6.79
2023-01-13T22:41:22.871Z,6.86
2023-01-13T22:43:49.350Z,6.84
2023-01-13T22:46:17.115Z,6.86
2023-01-13T22:48:44.096Z,6.88
2023-01-13T22:51:12.849Z,6.86
2023-01-13T22:53:40.396Z,6.81
2023-01-13T22:56:07.856Z,6.81
2023-01-13T22:58:37.036Z,6.77
2023-01-13T23:01:17.883Z,6.76
2023-01-13T23:03:48.063Z,6.77
2023-01-13T23:06:15.657Z,6.83
2023-01-13T23:08:42.660Z,6.80
2023-01-13T23:11:13.608Z,6.75
2023-01-13T23:13:43.364Z,6.72
2023-01-13T23:16:19.589Z,6.68
2023-01-13T23:18:48.499Z,6.70
2023-01-13T23:21:26.356Z,6.64
2023-01-13T23:23:53.683Z,6.54
2023-01-13T23:26:21.872Z,6.59
2023-01-13T23:28:49.415Z,6.60
2023-01-13T23:31:19.819Z,6.56
2023-01-13T23:33:47.540Z,6.55
2023-01-13T23:36:17.474Z,6.52
2023-01-13T23:38:44.928Z,6.50
2023-01-13T23:41:16.265Z,6.45
2023-01-13T23:43:43.482Z,6.43
2023-01-13T23:46:12.876Z,6.44
2023-01-13T23:48:39.925Z,6.43
2023-01-13T23:51:09.091Z,6.35
2023-01-13T23:53:40.908Z,6.38
2023-01-13T23:56:11.090Z,6.37
2023-01-13T23:58:41.000Z,6.38
